Time;durP1;ratioP1;P1;durP2;ratioP2;P2;SDS_P1;SDS_P2;PMS_P1;PMS_P2;Temp;Humidity;BMP_temperature;BMP_pressure;BME280_temperature;BME280_humidity;BME280_pressure;Samples;Min_cycle;Max_cycle;Signal;HPM_P1;HPM_P2
2022/06/27 00:01:08;;;;;;;7.35;2.08;;;18.40;99.90;;;;;;5053234;28;20025;-39
2022/06/27 00:03:34;;;;;;;4.80;2.00;;;18.40;99.90;;;;;;5022144;28;20034;-39
2022/06/27 00:06:00;;;;;;;10.15;2.50;;;18.40;99.90;;;;;;5031980;28;20032;-39
2022/06/27 00:08:26;;;;;;;3.42;2.15;;;18.50;99.90;;;;;;5046398;28;20025;-39
2022/06/27 00:10:52;;;;;;;4.25;2.33;;;18.50;99.90;;;;;;5037256;28;20036;-39
2022/06/27 00:13:17;;;;;;;4.80;2.00;;;18.50;99.90;;;;;;5030906;28;20502;-38
2022/06/27 00:15:43;;;;;;;8.55;2.10;;;18.50;99.90;;;;;;5043106;28;20032;-37
2022/06/27 00:18:09;;;;;;;3.28;2.20;;;18.50;99.90;;;;;;5032566;28;20028;-39
2022/06/27 00:20:34;;;;;;;6.70;2.60;;;18.60;99.90;;;;;;5031611;28;20052;-39
2022/06/27 00:23:00;;;;;;;7.88;2.55;;;18.70;99.90;;;;;;5032132;28;20041;-39
2022/06/27 00:25:26;;;;;;;5.53;2.63;;;18.60;99.90;;;;;;5031958;28;20508;-39
2022/06/27 00:27:51;;;;;;;5.57;2.20;;;18.60;99.90;;;;;;5031105;28;20549;-39
2022/06/27 00:30:17;;;;;;;5.95;2.90;;;18.60;99.90;;;;;;5035660;28;20034;-39
2022/06/27 00:32:43;;;;;;;4.80;2.03;;;18.60;99.90;;;;;;5031938;28;20503;-38
2022/06/27 00:35:09;;;;;;;8.85;3.03;;;18.60;99.90;;;;;;5031549;28;20093;-39
2022/06/27 00:37:35;;;;;;;3.88;2.33;;;18.60;99.90;;;;;;5032898;28;20013;-39
2022/06/27 00:40:01;;;;;;;2.88;2.38;;;18.60;99.90;;;;;;5031356;28;20021;-37
2022/06/27 00:42:27;;;;;;;4.65;2.88;;;18.70;99.90;;;;;;5038445;28;20607;-39
2022/06/27 00:44:52;;;;;;;8.20;3.42;;;18.70;99.90;;;;;;5030646;28;20116;-37
2022/06/27 00:47:18;;;;;;;7.57;3.30;;;18.70;99.90;;;;;;5032183;28;20108;-38
2022/06/27 00:49:44;;;;;;;3.08;2.75;;;18.80;99.90;;;;;;5032251;28;20046;-50
2022/06/27 00:52:11;;;;;;;4.22;2.55;;;18.70;99.90;;;;;;5031014;28;20030;-39
2022/06/27 00:54:38;;;;;;;;;;;18.70;99.90;;;;;;5031521;28;20531;-38
2022/06/27 00:57:05;;;;;;;3.83;2.13;;;18.60;99.90;;;;;;5031160;28;20320;-39
2022/06/27 00:59:31;;;;;;;10.02;3.33;;;18.60;99.90;;;;;;5031026;28;20508;-38
2022/06/27 01:01:57;;;;;;;4.90;2.30;;;18.60;99.90;;;;;;5036912;28;20060;-37
2022/06/27 01:04:23;;;;;;;7.88;2.90;;;18.60;99.90;;;;;;5031631;28;20029;-34
2022/06/27 01:06:51;;;;;;;4.53;2.38;;;18.50;99.90;;;;;;5032677;28;20402;-32
2022/06/27 01:09:19;;;;;;;2.90;2.70;;;18.50;99.90;;;;;;5031139;28;20425;-33
2022/06/27 01:11:45;;;;;;;8.05;3.20;;;18.50;99.90;;;;;;5029858;28;20411;-30
2022/06/27 01:14:12;;;;;;;9.57;2.80;;;18.50;99.90;;;;;;5037339;28;20104;-32
2022/06/27 01:16:41;;;;;;;6.63;3.53;;;18.50;99.90;;;;;;5033441;28;20125;-33
2022/06/27 01:19:11;;;;;;;10.55;4.53;;;18.60;99.90;;;;;;5031893;28;20397;-31
2022/06/27 01:21:42;;;;;;;3.92;2.78;;;18.60;99.90;;;;;;5035108;28;20033;-33
2022/06/27 01:24:08;;;;;;;9.38;3.15;;;18.70;99.90;;;;;;5036169;28;20037;-34
2022/06/27 01:26:34;;;;;;;8.70;3.33;;;18.70;99.90;;;;;;5034879;28;20025;-41
2022/06/27 01:29:00;;;;;;;5.43;3.30;;;18.70;99.90;;;;;;5034450;28;20120;-35
2022/06/27 01:31:27;;;;;;;6.65;3.08;;;18.70;99.90;;;;;;5034819;28;20112;-35
2022/06/27 01:33:53;;;;;;;7.45;2.97;;;18.70;99.90;;;;;;5035330;28;20048;-32
2022/06/27 01:39:03;;;;;;;4.10;3.15;;;18.70;99.90;;;;;;5044852;28;20052;-31
2022/06/27 01:41:29;;;;;;;3.95;2.67;;;18.70;99.90;;;;;;5033854;28;20029;-31
2022/06/27 01:43:55;;;;;;;8.75;3.58;;;18.70;99.90;;;;;;5034335;28;20466;-32
2022/06/27 01:46:20;;;;;;;5.82;2.92;;;18.70;99.90;;;;;;5028143;28;20040;-34
2022/06/27 01:48:46;;;;;;;8.82;3.20;;;18.70;99.90;;;;;;5042930;28;20029;-37
2022/06/27 01:51:12;;;;;;;6.05;2.80;;;18.80;99.90;;;;;;5034652;28;20025;-33
2022/06/27 01:53:38;;;;;;;5.18;4.22;;;18.70;99.90;;;;;;5034351;28;20433;-37
2022/06/27 01:56:04;;;;;;;6.75;3.75;;;18.80;99.90;;;;;;5034640;28;20119;-32
2022/06/27 01:58:31;;;;;;;9.67;3.27;;;18.80;99.90;;;;;;5035520;28;20037;-35
2022/06/27 02:00:57;;;;;;;6.65;4.32;;;18.80;99.90;;;;;;5036819;28;20555;-35
2022/06/27 02:03:23;;;;;;;9.00;3.97;;;18.80;99.90;;;;;;5039976;28;20022;-30
2022/06/27 02:05:51;;;;;;;7.57;3.83;;;18.80;99.90;;;;;;5035398;28;20039;-39
2022/06/27 02:08:20;;;;;;;4.15;3.80;;;18.70;99.90;;;;;;5033890;28;20095;-40
2022/06/27 02:10:46;;;;;;;4.80;3.17;;;18.70;99.90;;;;;;5034391;28;20112;-37
2022/06/27 02:13:13;;;;;;;4.97;3.60;;;18.70;99.90;;;;;;5030663;28;20103;-38
2022/06/27 02:16:06;;;;;;;8.57;3.80;;;18.60;99.90;;;;;;5048478;28;20056;-38
2022/06/27 02:18:33;;;;;;;6.90;3.22;;;18.60;99.90;;;;;;5034389;28;20525;-37
2022/06/27 02:21:00;;;;;;;7.13;3.28;;;18.50;99.90;;;;;;5033401;28;20029;-39
2022/06/27 02:23:26;;;;;;;6.68;3.47;;;18.50;99.90;;;;;;5035057;28;20036;-32
2022/06/27 02:25:52;;;;;;;5.65;2.65;;;18.40;99.90;;;;;;5034938;28;20025;-31
2022/06/27 02:28:20;;;;;;;4.15;2.85;;;18.40;99.90;;;;;;5035130;28;20017;-33
2022/06/27 02:30:45;;;;;;;5.60;3.72;;;18.30;99.90;;;;;;5036851;28;20061;-43
2022/06/27 02:33:11;;;;;;;8.35;3.70;;;18.20;99.90;;;;;;5034114;28;20067;-37
2022/06/27 02:35:42;;;;;;;10.35;3.83;;;18.20;99.90;;;;;;5035041;28;20029;-30
2022/06/27 02:38:10;;;;;;;3.97;3.28;;;18.20;99.90;;;;;;5046040;28;20488;-33
2022/06/27 02:40:42;;;;;;;5.22;3.30;;;18.20;99.90;;;;;;5035876;28;20477;-36
2022/06/27 02:43:08;;;;;;;5.18;3.15;;;18.10;99.90;;;;;;5050719;28;20029;-33
2022/06/27 02:45:36;;;;;;;5.45;2.75;;;18.10;99.90;;;;;;5038111;28;20053;-45
2022/06/27 02:48:02;;;;;;;8.68;3.10;;;18.00;99.90;;;;;;5033953;28;20164;-38
2022/06/27 02:50:32;;;;;;;4.07;3.15;;;17.90;99.90;;;;;;5033082;28;20477;-47
2022/06/27 02:53:01;;;;;;;6.88;2.88;;;17.90;99.90;;;;;;5033528;28;20120;-39
2022/06/27 02:55:31;;;;;;;5.78;3.22;;;17.90;99.90;;;;;;5033992;28;20018;-32
2022/06/27 02:58:02;;;;;;;3.25;2.78;;;17.80;99.90;;;;;;5023395;28;20497;-35
2022/06/27 03:00:29;;;;;;;5.03;2.63;;;17.80;99.90;;;;;;5042144;28;20497;-38
2022/06/27 03:02:56;;;;;;;3.92;3.15;;;17.80;99.90;;;;;;5033883;28;20032;-38
2022/06/27 03:05:22;;;;;;;7.28;3.72;;;17.70;99.90;;;;;;5032713;28;20033;-39
2022/06/27 03:07:47;;;;;;;10.35;3.63;;;17.70;99.90;;;;;;5034194;28;20020;-37
2022/06/27 03:10:14;;;;;;;5.22;4.07;;;17.70;99.90;;;;;;5033227;28;20030;-39
2022/06/27 03:12:41;;;;;;;4.13;3.50;;;17.70;99.90;;;;;;5032048;28;20049;-39
2022/06/27 03:15:08;;;;;;;6.32;3.80;;;17.70;99.90;;;;;;5034443;28;20136;-39
2022/06/27 03:17:33;;;;;;;3.43;3.10;;;17.60;99.90;;;;;;5033179;28;20034;-38
2022/06/27 03:19:59;;;;;;;8.35;3.38;;;17.60;99.90;;;;;;5032968;28;20127;-37
2022/06/27 03:22:25;;;;;;;8.18;3.53;;;17.60;99.90;;;;;;5033879;28;20026;-44
2022/06/27 03:24:50;;;;;;;6.25;3.45;;;17.60;99.90;;;;;;5033863;28;20030;-37
2022/06/27 03:27:16;;;;;;;5.75;3.40;;;17.60;99.90;;;;;;5033797;28;20029;-33
2022/06/27 03:29:41;;;;;;;5.45;3.42;;;17.50;99.90;;;;;;5051900;28;20036;-38
2022/06/27 03:32:07;;;;;;;10.98;4.38;;;17.50;99.90;;;;;;5052024;28;20036;-38
2022/06/27 03:34:33;;;;;;;6.45;3.67;;;17.50;99.90;;;;;;5032886;28;20477;-39
2022/06/27 03:36:59;;;;;;;8.00;4.43;;;17.40;99.90;;;;;;5032411;28;20029;-39
2022/06/27 03:39:25;;;;;;;6.35;4.05;;;17.40;99.90;;;;;;5033917;28;20470;-39
2022/06/27 03:41:51;;;;;;;5.38;3.83;;;17.40;99.90;;;;;;5036831;28;20393;-39
2022/06/27 03:44:17;;;;;;;8.32;4.20;;;17.40;99.90;;;;;;5033838;28;20040;-39
2022/06/27 03:46:43;;;;;;;6.70;4.18;;;17.40;99.90;;;;;;5032654;28;20025;-38
2022/06/27 03:51:54;;;;;;;4.22;3.83;;;17.30;99.90;;;;;;5053475;28;20527;-40
2022/06/27 03:54:19;;;;;;;8.18;4.25;;;17.30;99.90;;;;;;5053336;28;20100;-38
2022/06/27 03:56:45;;;;;;;3.83;3.40;;;17.30;99.90;;;;;;5040567;28;20508;-37
2022/06/27 03:59:11;;;;;;;5.47;3.17;;;17.30;99.90;;;;;;5033375;28;20426;-40
2022/06/27 04:01:37;;;;;;;5.95;3.80;;;17.30;99.90;;;;;;5043982;28;20060;-39
2022/06/27 04:04:02;;;;;;;8.25;3.85;;;17.20;99.90;;;;;;5032658;28;20032;-39
2022/06/27 04:06:28;;;;;;;6.90;4.75;;;17.20;99.90;;;;;;5031377;28;20037;-39
2022/06/27 04:08:54;;;;;;;7.55;4.28;;;17.20;99.90;;;;;;5032407;28;20100;-56
2022/06/27 04:11:20;;;;;;;6.47;5.07;;;17.20;99.90;;;;;;5032858;28;20553;-39
2022/06/27 04:13:45;;;;;;;7.72;4.07;;;17.20;99.90;;;;;;5032543;28;20497;-37
2022/06/27 04:16:11;;;;;;;5.55;4.25;;;17.20;99.90;;;;;;5041046;28;20063;-38
2022/06/27 04:18:37;;;;;;;5.82;3.72;;;17.30;99.90;;;;;;5032352;28;20017;-38
2022/06/27 04:21:02;;;;;;;4.32;3.70;;;17.30;99.90;;;;;;5030852;28;20024;-43
2022/06/27 04:23:28;;;;;;;5.95;3.70;;;17.40;99.90;;;;;;5044561;28;20469;-39
2022/06/27 04:25:53;;;;;;;5.93;4.10;;;17.40;99.90;;;;;;5033612;28;20040;-39
2022/06/27 04:28:19;;;;;;;5.75;4.47;;;17.50;99.90;;;;;;5033069;28;20036;-38
2022/06/27 04:30:46;;;;;;;8.38;4.45;;;17.60;99.90;;;;;;5033058;28;20034;-38
2022/06/27 04:33:12;;;;;;;8.85;4.35;;;17.80;99.90;;;;;;5040822;28;20505;-37
2022/06/27 04:35:40;;;;;;;9.20;4.70;;;17.90;99.90;;;;;;5029596;28;20030;-39
2022/06/27 04:38:06;;;;;;;7.68;5.25;;;18.00;99.90;;;;;;5032975;28;20100;-39
2022/06/27 04:40:32;;;;;;;6.38;4.50;;;18.10;99.90;;;;;;5032355;28;20112;-40
2022/06/27 04:42:59;;;;;;;7.38;4.80;;;18.10;99.90;;;;;;5031776;28;20559;-39
2022/06/27 04:45:26;;;;;;;10.73;5.05;;;18.10;99.90;;;;;;5032864;28;20071;-37
2022/06/27 04:47:52;;;;;;;7.32;4.22;;;18.10;99.90;;;;;;5041627;28;20538;-38
2022/06/27 04:50:19;;;;;;;9.80;5.03;;;18.10;99.90;;;;;;5036369;28;20091;-40
2022/06/27 04:52:46;;;;;;;12.45;4.50;;;18.10;99.90;;;;;;5029301;28;20496;-38
2022/06/27 04:55:12;;;;;;;6.95;4.78;;;18.10;99.90;;;;;;5032113;28;20037;-39
2022/06/27 04:57:42;;;;;;;7.25;4.47;;;18.10;99.90;;;;;;5036850;28;20500;-39
2022/06/27 05:00:10;;;;;;;8.85;4.55;;;18.10;99.90;;;;;;5035114;28;20064;-38
2022/06/27 05:02:36;;;;;;;5.38;4.40;;;18.10;99.90;;;;;;5036523;28;20018;-39
2022/06/27 05:05:02;;;;;;;7.72;4.00;;;18.10;99.90;;;;;;5038017;28;20032;-38
2022/06/27 05:07:28;;;;;;;6.30;4.10;;;18.10;99.90;;;;;;5036527;28;20092;-40
2022/06/27 05:09:54;;;;;;;3.92;3.50;;;18.10;99.90;;;;;;5036678;28;20131;-45
2022/06/27 05:12:20;;;;;;;6.65;4.18;;;18.00;99.90;;;;;;5033334;28;20049;-38
2022/06/27 05:14:46;;;;;;;7.15;5.00;;;18.10;99.90;;;;;;5033508;28;20053;-37
2022/06/27 05:17:12;;;;;;;8.38;4.40;;;18.10;99.90;;;;;;5036270;28;20021;-39
2022/06/27 05:19:38;;;;;;;7.00;4.32;;;18.10;99.90;;;;;;5037074;28;20060;-38
2022/06/27 05:22:03;;;;;;;9.07;4.68;;;18.10;99.90;;;;;;5035300;28;20370;-38
2022/06/27 05:24:29;;;;;;;9.88;4.95;;;18.10;99.90;;;;;;5035946;28;20029;-39
2022/06/27 05:26:55;;;;;;;5.07;4.20;;;18.20;99.90;;;;;;5034808;28;20489;-39
2022/06/27 05:29:21;;;;;;;6.38;3.85;;;18.20;99.90;;;;;;5035358;28;20083;-39
2022/06/27 05:31:47;;;;;;;7.97;4.80;;;18.30;99.90;;;;;;5034847;28;20084;-37
2022/06/27 05:34:13;;;;;;;5.28;4.03;;;18.40;99.90;;;;;;5034411;28;20025;-39
2022/06/27 05:36:38;;;;;;;10.85;4.63;;;18.50;99.90;;;;;;5035453;28;20025;-68
2022/06/27 05:39:05;;;;;;;10.02;5.43;;;18.50;99.90;;;;;;5052194;28;20027;-38
2022/06/27 05:41:31;;;;;;;8.13;4.57;;;18.50;99.90;;;;;;5035305;28;20482;-39
2022/06/27 05:43:57;;;;;;;5.85;3.80;;;18.60;99.90;;;;;;5035787;28;20759;-39
2022/06/27 05:46:23;;;;;;;9.25;5.15;;;18.80;99.90;;;;;;5035687;28;20018;-38
2022/06/27 05:48:51;;;;;;;11.20;5.00;;;18.80;99.90;;;;;;5031489;28;20466;-37
2022/06/27 05:51:19;;;;;;;8.98;4.93;;;18.90;99.90;;;;;;5039732;28;20034;-37
2022/06/27 05:53:45;;;;;;;9.45;4.68;;;19.00;99.90;;;;;;5030909;28;20065;-38
2022/06/27 05:56:11;;;;;;;10.95;6.10;;;19.00;99.90;;;;;;5031971;28;20540;-39
2022/06/27 05:58:38;;;;;;;8.93;5.82;;;19.00;99.90;;;;;;5034596;28;20033;-39
2022/06/27 06:01:04;;;;;;;8.07;5.07;;;19.00;99.90;;;;;;5034757;28;20424;-38
2022/06/27 06:03:31;;;;;;;9.00;5.40;;;19.00;99.90;;;;;;5034497;28;20505;-39
2022/06/27 06:05:57;;;;;;;9.35;5.95;;;19.00;99.90;;;;;;5034361;28;20048;-38
2022/06/27 06:08:25;;;;;;;12.35;6.00;;;19.00;99.90;;;;;;5035032;28;20438;-39
2022/06/27 06:10:51;;;;;;;9.18;5.15;;;19.00;99.90;;;;;;5033078;28;20091;-38
2022/06/27 06:13:17;;;;;;;7.88;5.35;;;19.00;99.90;;;;;;5033020;28;20486;-39
2022/06/27 06:15:42;;;;;;;9.48;5.00;;;19.00;99.90;;;;;;5033003;28;20456;-37
2022/06/27 06:18:08;;;;;;;8.90;5.40;;;19.00;99.90;;;;;;5033095;28;20040;-37
2022/06/27 06:20:35;;;;;;;11.15;5.25;;;19.00;99.90;;;;;;5031460;28;20026;-37
2022/06/27 06:23:00;;;;;;;9.30;5.25;;;19.00;99.90;;;;;;5032958;28;20052;-38
2022/06/27 06:25:27;;;;;;;11.57;5.88;;;19.00;99.90;;;;;;5032867;28;20065;-39
2022/06/27 06:27:56;;;;;;;7.57;4.77;;;19.00;99.90;;;;;;5022467;28;20034;-39
2022/06/27 06:30:24;;;;;;;7.65;4.55;;;19.00;99.90;;;;;;5030722;28;20362;-39
2022/06/27 06:32:50;;;;;;;11.30;5.53;;;19.10;99.90;;;;;;5032383;28;20473;-56
2022/06/27 06:35:16;;;;;;;8.90;5.35;;;19.10;99.90;;;;;;5049264;28;20026;-38
2022/06/27 06:37:43;;;;;;;10.93;5.87;;;19.10;99.90;;;;;;5034904;28;20064;-34
2022/06/27 06:40:11;;;;;;;8.88;5.35;;;19.20;99.90;;;;;;5034712;28;20774;-32
2022/06/27 06:42:36;;;;;;;14.15;6.45;;;19.20;99.90;;;;;;5033970;28;20037;-32
2022/06/27 06:45:03;;;;;;;11.18;6.50;;;19.30;99.90;;;;;;5028665;28;20482;-39
2022/06/27 06:47:30;;;;;;;13.77;5.97;;;19.40;99.90;;;;;;5040851;28;20080;-36
2022/06/27 06:49:55;;;;;;;15.52;7.38;;;19.40;99.90;;;;;;5054682;28;20358;-33
2022/06/27 06:52:21;;;;;;;10.40;6.18;;;19.40;99.90;;;;;;5043371;28;20044;-38
2022/06/27 06:54:48;;;;;;;9.43;5.72;;;19.40;99.90;;;;;;5033636;28;20052;-33
2022/06/27 06:57:14;;;;;;;13.13;6.10;;;19.50;99.90;;;;;;5034419;28;20025;-33
2022/06/27 06:59:40;;;;;;;9.68;6.47;;;19.50;99.90;;;;;;5029021;28;20030;-38
2022/06/27 07:02:06;;;;;;;13.10;7.45;;;19.50;99.90;;;;;;5023619;28;20367;-33
2022/06/27 07:04:32;;;;;;;13.73;7.38;;;19.50;99.90;;;;;;5027353;28;20048;-34
2022/06/27 07:06:58;;;;;;;10.80;6.20;;;19.50;99.90;;;;;;5038963;28;20397;-36
2022/06/27 07:09:24;;;;;;;12.35;6.47;;;19.50;99.90;;;;;;5047280;28;20054;-33
2022/06/27 07:11:51;;;;;;;8.18;5.78;;;19.50;99.90;;;;;;5046077;28;20390;-34
2022/06/27 07:14:17;;;;;;;13.35;6.75;;;19.50;99.90;;;;;;5031778;28;20057;-29
2022/06/27 07:16:44;;;;;;;12.57;5.55;;;19.60;99.90;;;;;;5029395;28;20032;-33
2022/06/27 07:19:11;;;;;;;6.90;4.95;;;19.60;99.90;;;;;;5034764;28;20470;-32
2022/06/27 07:21:36;;;;;;;11.70;5.65;;;19.60;99.90;;;;;;5029778;28;20025;-31
2022/06/27 07:24:03;;;;;;;7.80;5.80;;;19.50;99.90;;;;;;5034615;28;20032;-29
2022/06/27 07:26:31;;;;;;;6.30;5.07;;;19.60;99.90;;;;;;5029066;28;20025;-34
2022/06/27 07:28:57;;;;;;;8.45;5.03;;;19.60;99.90;;;;;;5032425;28;20756;-31
2022/06/27 07:31:23;;;;;;;14.48;5.35;;;19.60;99.90;;;;;;5032984;28;20028;-31
2022/06/27 07:33:54;;;;;;;12.00;6.30;;;19.60;99.90;;;;;;5026862;28;20486;-28
2022/06/27 07:36:20;;;;;;;5.82;4.65;;;19.70;99.90;;;;;;5028633;28;20492;-33
2022/06/27 07:38:49;;;;;;;10.60;5.32;;;19.70;99.90;;;;;;5043403;28;20033;-31
2022/06/27 07:41:19;;;;;;;7.28;5.03;;;19.70;99.90;;;;;;5023235;28;20027;-33
2022/06/27 07:43:46;;;;;;;8.70;5.25;;;19.70;99.90;;;;;;5032898;28;20026;-34
2022/06/27 07:48:57;;;;;;;8.48;4.90;;;19.70;99.90;;;;;;5014819;28;20114;-32
2022/06/27 07:51:23;;;;;;;12.27;4.95;;;19.70;99.90;;;;;;5028050;28;20029;-39
2022/06/27 07:53:50;;;;;;;6.80;5.50;;;19.80;99.90;;;;;;5032425;28;20424;-37
2022/06/27 07:56:18;;;;;;;7.78;5.63;;;19.90;99.90;;;;;;5033627;28;20029;-30
2022/06/27 07:58:44;;;;;;;10.25;5.38;;;20.00;99.90;;;;;;5032038;28;20474;-35
2022/06/27 08:01:14;;;;;;;13.32;6.57;;;20.00;99.90;;;;;;5033292;28;20057;-36
2022/06/27 08:03:40;;;;;;;8.88;4.70;;;20.00;99.90;;;;;;5032821;28;20030;-30
2022/06/27 08:06:08;;;;;;;10.43;5.65;;;20.00;99.90;;;;;;5031659;28;20063;-29
2022/06/27 08:08:36;;;;;;;7.32;4.25;;;20.00;99.90;;;;;;5031236;28;20022;-33
2022/06/27 08:11:03;;;;;;;10.55;4.90;;;20.00;99.90;;;;;;5031161;28;20505;-38
2022/06/27 08:13:31;;;;;;;9.80;5.32;;;20.00;99.90;;;;;;5030173;28;20033;-38
2022/06/27 08:15:57;;;;;;;;;;;20.00;99.90;;;;;;5033573;28;20481;-37
2022/06/27 08:18:23;;;;;;;7.45;4.78;;;20.10;99.90;;;;;;5033129;28;19909;-39
2022/06/27 08:20:49;;;;;;;10.55;5.78;;;20.10;99.90;;;;;;5034498;28;20018;-38
2022/06/27 08:23:15;;;;;;;6.85;5.20;;;20.10;99.90;;;;;;5033793;28;20033;-39
2022/06/27 08:25:42;;;;;;;8.32;5.45;;;20.20;99.90;;;;;;5029683;28;20025;-39
2022/06/27 08:28:12;;;;;;;10.13;4.63;;;20.20;99.90;;;;;;5029314;28;20485;-39
2022/06/27 08:30:38;;;;;;;6.68;5.18;;;20.30;99.90;;;;;;5036425;28;20366;-38
2022/06/27 08:33:04;;;;;;;10.50;4.57;;;20.30;99.90;;;;;;5035942;28;20505;-39
2022/06/27 08:35:30;;;;;;;6.47;4.03;;;20.30;99.90;;;;;;5039697;28;20500;-42
2022/06/27 08:37:58;;;;;;;5.68;3.75;;;20.30;99.90;;;;;;5057035;28;20487;-39
2022/06/27 08:40:42;;;;;;;8.82;4.25;;;20.30;99.90;;;;;;5050449;28;20027;-39
2022/06/27 08:43:12;;;;;;;4.75;3.42;;;20.40;99.90;;;;;;5047272;28;20044;-39
2022/06/27 08:45:38;;;;;;;4.00;3.42;;;20.50;99.90;;;;;;5044912;28;20108;-52
2022/06/27 08:48:07;;;;;;;6.82;3.92;;;20.50;99.90;;;;;;5025486;28;20147;-47
2022/06/27 08:50:34;;;;;;;6.93;3.95;;;20.50;99.90;;;;;;5036336;28;20029;-39
2022/06/27 08:53:01;;;;;;;7.78;3.85;;;20.50;99.90;;;;;;5037226;28;20030;-32
2022/06/27 08:55:27;;;;;;;6.90;3.22;;;20.50;99.90;;;;;;5028531;28;20029;-29
2022/06/27 08:57:53;;;;;;;5.50;2.97;;;20.50;99.90;;;;;;5046806;28;20033;-30
2022/06/27 09:00:19;;;;;;;7.47;3.42;;;20.40;99.90;;;;;;5056553;28;20021;-33
2022/06/27 09:02:44;;;;;;;6.45;3.85;;;20.40;99.90;;;;;;5041310;28;20032;-37
2022/06/27 09:05:16;;;;;;;11.70;3.33;;;20.40;99.90;;;;;;5051188;28;20033;-36
2022/06/27 09:07:56;;;;;;;8.40;3.65;;;20.40;99.90;;;;;;5056424;28;20512;-37
2022/06/27 09:10:42;;;;;;;3.03;2.72;;;20.50;99.90;;;;;;5035379;28;20123;-29
2022/06/27 09:13:16;;;;;;;7.80;3.50;;;20.40;99.90;;;;;;5030852;28;20482;-36
2022/06/27 09:15:58;;;;;;;5.03;3.00;;;20.40;99.90;;;;;;5036143;28;20045;-32
2022/06/27 09:18:36;;;;;;;10.43;3.55;;;20.40;99.90;;;;;;5044311;28;20034;-41
2022/06/27 09:21:09;;;;;;;5.13;3.50;;;20.50;99.90;;;;;;5031358;28;20025;-32
2022/06/27 09:23:47;;;;;;;6.30;3.30;;;20.50;99.90;;;;;;5027877;28;20473;-31
2022/06/27 09:26:20;;;;;;;;;;;20.50;99.90;;;;;;5027422;28;20545;-33
2022/06/27 09:28:53;;;;;;;9.15;3.13;;;20.40;99.90;;;;;;5028044;28;20392;-34
2022/06/27 09:31:28;;;;;;;4.53;3.65;;;20.40;99.90;;;;;;5025365;28;20021;-33
2022/06/27 09:34:18;;;;;;;9.88;4.07;;;20.40;99.90;;;;;;5039656;28;20391;-37
2022/06/27 09:36:50;;;;;;;4.80;2.92;;;20.40;99.90;;;;;;5030038;28;20071;-29
2022/06/27 09:39:21;;;;;;;10.23;4.63;;;20.40;99.90;;;;;;5027086;28;20505;-46
2022/06/27 09:41:54;;;;;;;8.93;3.70;;;20.40;99.90;;;;;;5032482;28;20029;-30
2022/06/27 09:44:24;;;;;;;7.45;3.08;;;20.40;99.90;;;;;;5034175;28;20470;-48
2022/06/27 09:46:57;;;;;;;7.20;2.40;;;20.40;99.90;;;;;;5034205;28;20381;-32
2022/06/27 09:49:26;;;;;;;3.20;2.67;;;20.50;99.90;;;;;;5034127;28;20505;-34
2022/06/27 09:51:53;;;;;;;10.18;4.13;;;20.50;99.90;;;;;;5034090;28;20087;-36
2022/06/27 09:54:20;;;;;;;6.90;3.63;;;20.50;99.90;;;;;;5030307;28;20101;-37
2022/06/27 09:56:48;;;;;;;6.13;3.85;;;20.60;99.90;;;;;;5034277;28;20496;-35
2022/06/27 09:59:15;;;;;;;7.78;3.97;;;20.60;99.90;;;;;;5038714;28;20076;-33
2022/06/27 10:01:41;;;;;;;9.80;5.25;;;20.60;99.90;;;;;;5029075;28;20113;-30
2022/06/27 10:04:09;;;;;;;5.82;3.30;;;20.70;99.90;;;;;;5023568;28;20411;-37
2022/06/27 10:06:37;;;;;;;6.50;3.85;;;20.70;99.90;;;;;;5032979;28;20024;-34
2022/06/27 10:09:05;;;;;;;8.35;3.88;;;20.60;99.90;;;;;;5037986;28;20025;-38
2022/06/27 10:11:31;;;;;;;5.20;3.50;;;20.60;99.90;;;;;;5033258;28;20080;-34
2022/06/27 10:14:21;;;;;;;5.82;3.53;;;20.60;99.90;;;;;;5033711;28;20037;-31
2022/06/27 10:16:58;;;;;;;6.60;3.65;;;20.50;99.90;;;;;;5040799;28;20025;-38
2022/06/27 10:19:28;;;;;;;3.63;2.55;;;20.50;99.90;;;;;;5029469;28;20482;-32
2022/06/27 10:21:56;;;;;;;3.30;2.67;;;20.50;99.90;;;;;;5037975;28;20060;-35
2022/06/27 10:24:21;;;;;;;7.90;3.75;;;20.50;99.90;;;;;;5032197;28;20390;-34
2022/06/27 10:26:49;;;;;;;4.03;2.83;;;20.60;99.90;;;;;;5040306;28;20034;-41
2022/06/27 10:29:29;;;;;;;7.45;3.58;;;20.60;99.90;;;;;;5031287;28;20020;-45
2022/06/27 10:31:56;;;;;;;6.90;3.60;;;20.70;99.90;;;;;;5040983;28;20430;-39
2022/06/27 10:34:48;;;;;;;4.72;3.80;;;20.80;99.90;;;;;;5034750;28;20018;-39
2022/06/27 10:37:37;;;;;;;4.00;3.35;;;20.80;99.90;;;;;;5030508;28;20441;-31
2022/06/27 10:40:41;;;;;;;4.72;3.35;;;20.80;99.90;;;;;;5040399;28;20061;-33
2022/06/27 10:43:07;;;;;;;6.53;3.47;;;20.70;99.90;;;;;;5042860;28;20049;-34
2022/06/27 10:45:32;;;;;;;4.80;3.95;;;20.70;99.90;;;;;;5035828;28;20527;-43
2022/06/27 10:48:02;;;;;;;8.70;3.55;;;20.70;99.90;;;;;;5033443;28;20044;-30
2022/06/27 10:50:40;;;;;;;5.68;3.08;;;20.60;99.90;;;;;;5048848;28;20029;-33
2022/06/27 10:53:25;;;;;;;7.28;3.60;;;20.60;99.90;;;;;;5033421;28;20381;-36
2022/06/27 10:55:52;;;;;;;3.60;2.72;;;20.60;99.90;;;;;;5038814;28;20063;-33
2022/06/27 10:58:29;;;;;;;5.85;3.30;;;20.60;99.90;;;;;;5052315;28;20473;-34
2022/06/27 11:01:15;;;;;;;4.60;3.20;;;20.60;99.90;;;;;;5041260;28;20025;-30
2022/06/27 11:03:42;;;;;;;6.05;4.38;;;20.60;99.90;;;;;;5050118;28;20040;-34
2022/06/27 11:06:13;;;;;;;4.10;3.70;;;20.50;99.90;;;;;;5052244;28;20029;-32
2022/06/27 11:08:41;;;;;;;7.50;5.25;;;20.60;99.90;;;;;;5041739;28;20513;-31
2022/06/27 11:11:07;;;;;;;;;;;20.60;99.90;;;;;;5033098;28;20493;-32
2022/06/27 11:14:05;;;;;;;10.30;4.22;;;20.60;99.90;;;;;;5033673;28;19913;-37
2022/06/27 11:16:33;;;;;;;6.97;4.13;;;20.60;99.90;;;;;;5030196;28;20040;-34
2022/06/27 11:19:02;;;;;;;7.05;4.10;;;20.60;99.90;;;;;;5029157;28;20033;-33
2022/06/27 11:21:33;;;;;;;6.20;4.18;;;20.60;99.90;;;;;;5036333;28;20021;-32
2022/06/27 11:24:06;;;;;;;7.97;4.47;;;20.60;99.90;;;;;;5032467;28;20375;-40
2022/06/27 11:26:34;;;;;;;7.13;4.40;;;20.70;99.90;;;;;;5030861;28;20021;-32
2022/06/27 11:32:05;;;;;;;5.97;4.80;;;20.80;99.90;;;;;;5032683;28;20677;-32
2022/06/27 11:34:40;;;;;;;7.72;5.45;;;20.80;99.90;;;;;;5031585;28;20029;-34
2022/06/27 11:37:12;;;;;;;8.23;5.40;;;20.90;99.90;;;;;;5032410;28;20367;-32
2022/06/27 11:39:38;;;;;;;7.20;4.35;;;20.90;99.90;;;;;;5039736;28;20053;-31
2022/06/27 11:42:10;;;;;;;9.18;4.55;;;20.80;99.90;;;;;;5032617;28;20493;-35
2022/06/27 11:44:37;;;;;;;9.07;5.00;;;20.90;99.90;;;;;;5032389;28;20040;-31
2022/06/27 11:47:08;;;;;;;8.52;4.40;;;20.80;99.90;;;;;;5031511;28;20071;-33
2022/06/27 11:49:35;;;;;;;9.05;4.15;;;20.80;99.90;;;;;;5033432;28;20033;-38
2022/06/27 11:52:10;;;;;;;5.10;3.25;;;20.80;99.90;;;;;;5032318;28;20021;-33
2022/06/27 11:54:48;;;;;;;5.20;3.20;;;20.80;99.90;;;;;;5031901;28;20031;-34
2022/06/27 11:57:29;;;;;;;4.28;3.35;;;20.90;99.90;;;;;;5030104;28;20034;-32
2022/06/27 11:59:56;;;;;;;5.63;3.42;;;20.90;99.90;;;;;;5031680;28;20428;-36
2022/06/27 12:02:36;;;;;;;4.07;3.15;;;20.80;99.90;;;;;;5032865;28;20063;-31
2022/06/27 12:05:19;;;;;;;5.55;3.20;;;20.70;99.90;;;;;;5040011;28;20482;-37
2022/06/27 12:07:58;;;;;;;6.68;3.40;;;20.70;99.90;;;;;;5025817;28;20032;-34
2022/06/27 12:10:42;;;;;;;7.57;3.10;;;20.60;99.90;;;;;;5034071;28;20026;-30
2022/06/27 12:13:10;;;;;;;7.18;2.95;;;20.60;99.90;;;;;;5031063;28;20124;-30
2022/06/27 12:15:41;;;;;;;5.80;3.47;;;20.50;99.90;;;;;;5044830;28;20417;-39
2022/06/27 12:18:09;;;;;;;5.68;3.03;;;20.40;99.90;;;;;;5027750;28;20017;-32
2022/06/27 12:20:35;;;;;;;6.15;2.72;;;20.20;99.90;;;;;;5031072;28;20021;-31
2022/06/27 12:23:02;;;;;;;7.22;3.78;;;20.10;99.90;;;;;;5042250;28;20527;-35
2022/06/27 12:25:28;;;;;;;9.60;3.47;;;20.00;99.90;;;;;;5037765;28;20032;-33
2022/06/27 12:27:53;;;;;;;5.55;3.45;;;19.90;99.90;;;;;;5045388;28;20469;-30
2022/06/27 12:30:19;;;;;;;7.70;3.53;;;19.80;99.90;;;;;;5039655;28;20071;-32
2022/06/27 12:32:45;;;;;;;11.18;2.47;;;19.70;99.90;;;;;;5031567;28;20076;-36
2022/06/27 12:35:12;;;;;;;6.95;3.22;;;19.50;99.90;;;;;;5028537;28;20029;-29
2022/06/27 12:37:38;;;;;;;5.70;2.90;;;19.40;99.90;;;;;;5028424;28;20382;-30
2022/06/27 12:40:05;;;;;;;3.80;2.38;;;19.20;99.90;;;;;;5027286;28;20494;-33
2022/06/27 12:42:30;;;;;;;2.97;2.23;;;19.10;99.90;;;;;;5041226;28;20025;-33
2022/06/27 12:44:56;;;;;;;3.17;2.88;;;19.00;99.90;;;;;;5042077;28;21332;-29
2022/06/27 12:47:22;;;;;;;5.47;2.58;;;18.90;99.90;;;;;;5044013;28;20139;-36
2022/06/27 12:49:47;;;;;;;3.80;2.17;;;18.80;99.90;;;;;;5046904;28;20028;-31
2022/06/27 12:52:14;;;;;;;4.40;1.70;;;18.70;99.90;;;;;;5036474;28;21368;-33
2022/06/27 12:54:40;;;;;;;4.80;1.70;;;18.60;99.90;;;;;;5030527;28;20496;-29
2022/06/27 12:57:06;;;;;;;2.95;1.48;;;18.50;99.90;;;;;;5031462;28;20532;-32
2022/06/27 12:59:33;;;;;;;3.25;1.70;;;18.30;99.90;;;;;;5027808;28;20367;-29
2022/06/27 13:01:58;;;;;;;2.47;1.83;;;18.20;99.90;;;;;;5027626;28;20099;-33